KAL017 RKSI-KLAX
Flight info
| Callsign | KAL017 |
|---|---|
| Flight time | N/A |
| Altitude | 31000 |
| Route | DCT EGOBA Y697 BIKSI/N0494F330 Y697 LANAT Y51 OVSOS/N0490F350 Y51 SAMON Y142 GTC Y512 ADNAP OTR5 KALNA/M085F350 DCT 41N160E 42N170E 42N180E/M084F370 43N170W 44N160W 43N150W 41N140W 39N130W/N0480F370 DCT DACEM DCT PAINT DCT PIRAT DCT BURGL IRNMN2 |
| Aircraft | B748/H-SDE2FGHIJ1J2J3J4J5M1P2RWXYZ/LB1D1G1 |
Departure
| Time | N/A |
|---|---|
| Airport | Incheon International Airport (RKSI) |
Arrival
| Time | 2026-04-23 16:05 |
|---|---|
| Airport | Los Angeles International Airport (KLAX) |
| Time | Latitude | Longitude | Altitude | Speed | Heading |
|---|---|---|---|---|---|
| 2026-04-23 12:32 | 43.28127 | -152.06620 | 37154 ft | 519 kts | 97° |
| 2026-04-23 12:32 | 43.26887 | -151.96860 | 37156 ft | 519 kts | 97° |
| 2026-04-23 12:33 | 43.25637 | -151.87087 | 37154 ft | 516 kts | 97° |
| 2026-04-23 12:33 | 43.24387 | -151.77385 | 37156 ft | 516 kts | 97° |
| 2026-04-23 12:34 | 43.23131 | -151.67697 | 37156 ft | 516 kts | 97° |
| 2026-04-23 12:34 | 43.21875 | -151.58079 | 37161 ft | 515 kts | 97° |
| 2026-04-23 12:35 | 43.20595 | -151.48347 | 37161 ft | 515 kts | 97° |
| 2026-04-23 12:35 | 43.19316 | -151.38689 | 37219 ft | 515 kts | 97° |
| 2026-04-23 12:36 | 43.18029 | -151.29035 | 37223 ft | 514 kts | 97° |
| 2026-04-23 12:36 | 43.16736 | -151.19404 | 37219 ft | 514 kts | 97° |
| 2026-04-23 12:37 | 43.15429 | -151.09725 | 37217 ft | 513 kts | 97° |
| 2026-04-23 12:37 | 43.14116 | -151.00068 | 37217 ft | 513 kts | 97° |
| 2026-04-23 12:38 | 43.12793 | -150.90406 | 37217 ft | 512 kts | 97° |
| 2026-04-23 12:38 | 43.11475 | -150.80841 | 37217 ft | 511 kts | 97° |
| 2026-04-23 12:39 | 43.10150 | -150.71289 | 37217 ft | 511 kts | 97° |
| 2026-04-23 12:39 | 43.08818 | -150.61742 | 37217 ft | 511 kts | 97° |
| 2026-04-23 12:40 | 43.07480 | -150.52210 | 37218 ft | 510 kts | 97° |
| 2026-04-23 12:40 | 43.06137 | -150.42686 | 37218 ft | 509 kts | 96° |
| 2026-04-23 12:41 | 43.04826 | -150.33172 | 37218 ft | 509 kts | 97° |
| 2026-04-23 12:41 | 43.03457 | -150.23683 | 37218 ft | 509 kts | 97° |
| 2026-04-23 12:42 | 43.02074 | -150.14198 | 37218 ft | 509 kts | 97° |
| 2026-04-23 12:42 | 43.00690 | -150.04728 | 37215 ft | 508 kts | 97° |
| 2026-04-23 12:43 | 42.99288 | -149.95264 | 37216 ft | 508 kts | 98° |
| 2026-04-23 12:43 | 42.97832 | -149.85847 | 37215 ft | 506 kts | 98° |
| 2026-04-23 12:44 | 42.96367 | -149.76449 | 37215 ft | 506 kts | 98° |
| 2026-04-23 12:44 | 42.94884 | -149.66991 | 37215 ft | 506 kts | 98° |
| 2026-04-23 12:45 | 42.93403 | -149.57602 | 37215 ft | 506 kts | 98° |
| 2026-04-23 12:45 | 42.92190 | -149.49720 | 37216 ft | 506 kts | 97° |
| 2026-04-23 12:46 | 42.90773 | -149.40336 | 37215 ft | 505 kts | 98° |
| 2026-04-23 12:46 | 42.89318 | -149.30954 | 37215 ft | 505 kts | 98° |
| 2026-04-23 12:47 | 42.87845 | -149.21589 | 37216 ft | 505 kts | 98° |
| 2026-04-23 12:47 | 42.86360 | -149.12236 | 37216 ft | 505 kts | 98° |
| 2026-04-23 12:48 | 42.84866 | -149.02881 | 37216 ft | 505 kts | 98° |
| 2026-04-23 12:48 | 42.83356 | -148.93487 | 37216 ft | 504 kts | 98° |
| 2026-04-23 12:49 | 42.81858 | -148.84223 | 37216 ft | 504 kts | 99° |
| 2026-04-23 12:49 | 42.80332 | -148.74837 | 37216 ft | 504 kts | 99° |
| 2026-04-23 12:50 | 42.78811 | -148.65530 | 37217 ft | 504 kts | 99° |
| 2026-04-23 12:50 | 42.77282 | -148.56226 | 37216 ft | 503 kts | 99° |
| 2026-04-23 12:51 | 42.75746 | -148.46930 | 37216 ft | 503 kts | 99° |
| 2026-04-23 12:51 | 42.74205 | -148.37657 | 37218 ft | 503 kts | 99° |
| 2026-04-23 12:52 | 42.72646 | -148.28321 | 37219 ft | 503 kts | 99° |
| 2026-04-23 12:52 | 42.71090 | -148.19057 | 37218 ft | 502 kts | 99° |
| 2026-04-23 12:53 | 42.69527 | -148.09794 | 37219 ft | 502 kts | 99° |
| 2026-04-23 12:53 | 42.67957 | -148.00546 | 37219 ft | 503 kts | 99° |
| 2026-04-23 12:54 | 42.66379 | -147.91291 | 37218 ft | 501 kts | 100° |
| 2026-04-23 12:54 | 42.64788 | -147.82018 | 37219 ft | 501 kts | 100° |
| 2026-04-23 12:55 | 42.63200 | -147.72800 | 37219 ft | 501 kts | 100° |
| 2026-04-23 12:55 | 42.61581 | -147.63458 | 37219 ft | 501 kts | 100° |
| 2026-04-23 12:56 | 42.59977 | -147.54253 | 37220 ft | 501 kts | 100° |
| 2026-04-23 12:56 | 42.58356 | -147.44990 | 37219 ft | 501 kts | 101° |
| 2026-04-23 12:57 | 42.56740 | -147.35804 | 37220 ft | 501 kts | 101° |
| 2026-04-23 12:57 | 42.55115 | -147.26616 | 37220 ft | 501 kts | 101° |
| 2026-04-23 12:58 | 42.53481 | -147.17423 | 37220 ft | 501 kts | 101° |
| 2026-04-23 12:58 | 42.51829 | -147.08177 | 37220 ft | 501 kts | 101° |
| 2026-04-23 12:59 | 42.50183 | -146.99007 | 37221 ft | 501 kts | 101° |
| 2026-04-23 12:59 | 42.48530 | -146.89843 | 37220 ft | 501 kts | 101° |
| 2026-04-23 13:00 | 42.46868 | -146.80678 | 37219 ft | 500 kts | 101° |
| 2026-04-23 13:00 | 42.45190 | -146.71468 | 37220 ft | 501 kts | 102° |
| 2026-04-23 13:01 | 42.43515 | -146.62321 | 37219 ft | 500 kts | 102° |
| 2026-04-23 13:01 | 42.41833 | -146.53180 | 37219 ft | 501 kts | 102° |
| 2026-04-23 13:02 | 42.40140 | -146.44022 | 37219 ft | 501 kts | 102° |
| 2026-04-23 13:02 | 42.38431 | -146.34823 | 37220 ft | 501 kts | 102° |
| 2026-04-23 13:03 | 42.36728 | -146.25702 | 37270 ft | 500 kts | 102° |
| 2026-04-23 13:03 | 42.35016 | -146.16573 | 37281 ft | 501 kts | 102° |
| 2026-04-23 13:04 | 42.33294 | -146.07441 | 37282 ft | 502 kts | 102° |
| 2026-04-23 13:04 | 42.31555 | -145.98257 | 37282 ft | 501 kts | 102° |
| 2026-04-23 13:05 | 42.29821 | -145.89148 | 37282 ft | 501 kts | 103° |
| 2026-04-23 13:05 | 42.28080 | -145.80042 | 37284 ft | 501 kts | 103° |
| 2026-04-23 13:06 | 42.25455 | -145.66387 | 37283 ft | 501 kts | 103° |
| 2026-04-23 13:07 | 42.23685 | -145.57234 | 37284 ft | 500 kts | 103° |
| 2026-04-23 13:07 | 42.22208 | -145.49629 | 37284 ft | 500 kts | 103° |
| 2026-04-23 13:08 | 42.20441 | -145.40574 | 37285 ft | 500 kts | 103° |
| 2026-04-23 13:08 | 42.18664 | -145.31503 | 37285 ft | 501 kts | 103° |
| 2026-04-23 13:09 | 42.16877 | -145.22425 | 37285 ft | 500 kts | 103° |
| 2026-04-23 13:09 | 42.15085 | -145.13364 | 37286 ft | 500 kts | 103° |
| 2026-04-23 13:10 | 42.13291 | -145.04336 | 37286 ft | 499 kts | 103° |
| 2026-04-23 13:10 | 42.11487 | -144.95297 | 37286 ft | 499 kts | 103° |
| 2026-04-23 13:11 | 42.09676 | -144.86262 | 37324 ft | 499 kts | 103° |
| 2026-04-23 13:11 | 42.07861 | -144.77246 | 37351 ft | 500 kts | 103° |
| 2026-04-23 13:12 | 42.06034 | -144.68215 | 37352 ft | 500 kts | 103° |
| 2026-04-23 13:12 | 42.04213 | -144.59250 | 37352 ft | 499 kts | 103° |
| 2026-04-23 13:13 | 42.02366 | -144.50196 | 37352 ft | 500 kts | 103° |
| 2026-04-23 13:13 | 42.00518 | -144.41182 | 37352 ft | 500 kts | 103° |
| 2026-04-23 13:14 | 41.98664 | -144.32176 | 37352 ft | 500 kts | 104° |
| 2026-04-23 13:14 | 41.96806 | -144.23186 | 37352 ft | 500 kts | 104° |
| 2026-04-23 13:15 | 41.94937 | -144.14190 | 37351 ft | 500 kts | 104° |
| 2026-04-23 13:15 | 41.93064 | -144.05206 | 37352 ft | 500 kts | 104° |
| 2026-04-23 13:16 | 41.91169 | -143.96160 | 37352 ft | 500 kts | 104° |
| 2026-04-23 13:16 | 41.89267 | -143.87125 | 37352 ft | 500 kts | 104° |
| 2026-04-23 13:17 | 41.87374 | -143.78161 | 37351 ft | 500 kts | 104° |
| 2026-04-23 13:17 | 41.85482 | -143.69243 | 37351 ft | 500 kts | 104° |
| 2026-04-23 13:18 | 41.83572 | -143.60279 | 37352 ft | 500 kts | 104° |
| 2026-04-23 13:18 | 41.81654 | -143.51318 | 37351 ft | 500 kts | 104° |
| 2026-04-23 13:19 | 41.79731 | -143.42367 | 37351 ft | 500 kts | 104° |
| 2026-04-23 13:19 | 41.77796 | -143.33403 | 37351 ft | 501 kts | 104° |
| 2026-04-23 13:20 | 41.76815 | -143.28871 | 37353 ft | 501 kts | 104° |
| 2026-04-23 13:20 | 41.74958 | -143.20320 | 37351 ft | 501 kts | 104° |
| 2026-04-23 13:21 | 41.73017 | -143.11419 | 37350 ft | 501 kts | 104° |
| 2026-04-23 13:21 | 41.71055 | -143.02458 | 37351 ft | 501 kts | 104° |
| 2026-04-23 13:22 | 41.69075 | -142.93447 | 37351 ft | 502 kts | 104° |
| 2026-04-23 13:22 | 41.67113 | -142.84560 | 37350 ft | 502 kts | 104° |
| 2026-04-23 13:23 | 41.65131 | -142.75620 | 37350 ft | 501 kts | 104° |
| 2026-04-23 13:23 | 41.63129 | -142.66626 | 37350 ft | 501 kts | 104° |
| 2026-04-23 13:24 | 41.61146 | -142.57751 | 37350 ft | 501 kts | 105° |
| 2026-04-23 13:24 | 41.59129 | -142.48763 | 37350 ft | 502 kts | 105° |
| 2026-04-23 13:25 | 41.57128 | -142.39886 | 37350 ft | 503 kts | 105° |
| 2026-04-23 13:25 | 41.55108 | -142.30956 | 37350 ft | 502 kts | 105° |
| 2026-04-23 13:26 | 41.53080 | -142.22029 | 37349 ft | 502 kts | 105° |
| 2026-04-23 13:26 | 41.51049 | -142.13121 | 37349 ft | 502 kts | 105° |
| 2026-04-23 13:27 | 41.49007 | -142.04204 | 37349 ft | 502 kts | 105° |
| 2026-04-23 13:27 | 41.46959 | -141.95295 | 37349 ft | 503 kts | 105° |
| 2026-04-23 13:28 | 41.44901 | -141.86380 | 37348 ft | 503 kts | 105° |
| 2026-04-23 13:28 | 41.42837 | -141.77474 | 37348 ft | 503 kts | 105° |
| 2026-04-23 13:29 | 41.40767 | -141.68576 | 37348 ft | 503 kts | 105° |
| 2026-04-23 13:29 | 41.38690 | -141.59682 | 37348 ft | 502 kts | 105° |
| 2026-04-23 13:30 | 41.36611 | -141.50818 | 37348 ft | 502 kts | 105° |
| 2026-04-23 13:30 | 41.34522 | -141.41942 | 37348 ft | 503 kts | 106° |
| 2026-04-23 13:31 | 41.32423 | -141.33060 | 37347 ft | 503 kts | 106° |
| 2026-04-23 13:31 | 41.30322 | -141.24205 | 37347 ft | 502 kts | 106° |
| 2026-04-23 13:32 | 41.28214 | -141.15352 | 37347 ft | 502 kts | 106° |
| 2026-04-23 13:32 | 41.26101 | -141.06514 | 37346 ft | 502 kts | 106° |
| 2026-04-23 13:33 | 41.23982 | -140.97684 | 37347 ft | 502 kts | 106° |
| 2026-04-23 13:33 | 41.21852 | -140.88842 | 37346 ft | 502 kts | 107° |
| 2026-04-23 13:34 | 41.19716 | -140.80012 | 37346 ft | 502 kts | 107° |
| 2026-04-23 13:34 | 41.17577 | -140.71198 | 37345 ft | 501 kts | 107° |
| 2026-04-23 13:35 | 41.15429 | -140.62386 | 37345 ft | 502 kts | 107° |
| 2026-04-23 13:35 | 41.13263 | -140.53528 | 37345 ft | 502 kts | 107° |
| 2026-04-23 13:36 | 41.11104 | -140.44734 | 37345 ft | 502 kts | 107° |
| 2026-04-23 13:36 | 41.08960 | -140.35907 | 37344 ft | 502 kts | 107° |
| 2026-04-23 13:37 | 41.06792 | -140.27108 | 37344 ft | 502 kts | 107° |
| 2026-04-23 13:37 | 41.04585 | -140.18279 | 37344 ft | 502 kts | 107° |
| 2026-04-23 13:38 | 41.02380 | -140.09485 | 37344 ft | 502 kts | 107° |
| 2026-04-23 13:38 | 41.00201 | -140.00700 | 37342 ft | 502 kts | 105° |
| 2026-04-23 13:39 | 40.98601 | -139.91714 | 37343 ft | 502 kts | 101° |
| 2026-04-23 13:39 | 40.97262 | -139.82654 | 37343 ft | 501 kts | 100° |
| 2026-04-23 13:40 | 40.95882 | -139.73614 | 37342 ft | 502 kts | 101° |
| 2026-04-23 13:40 | 40.94473 | -139.64586 | 37342 ft | 501 kts | 101° |
| 2026-04-23 13:41 | 40.93290 | -139.57088 | 37368 ft | 501 kts | 101° |
| 2026-04-23 13:41 | 40.91920 | -139.48059 | 37368 ft | 501 kts | 101° |
| 2026-04-23 13:42 | 40.90527 | -139.38977 | 37368 ft | 501 kts | 101° |
| 2026-04-23 13:42 | 40.89126 | -139.30020 | 37367 ft | 501 kts | 101° |
| 2026-04-23 13:43 | 40.87699 | -139.21005 | 37367 ft | 501 kts | 101° |
| 2026-04-23 13:43 | 40.86265 | -139.12013 | 37366 ft | 500 kts | 101° |
| 2026-04-23 13:44 | 40.84814 | -139.02964 | 37366 ft | 500 kts | 102° |
| 2026-04-23 13:44 | 40.83376 | -138.94051 | 37366 ft | 500 kts | 102° |
| 2026-04-23 13:45 | 40.81911 | -138.85020 | 37365 ft | 500 kts | 102° |
| 2026-04-23 13:45 | 40.80447 | -138.76044 | 37364 ft | 500 kts | 102° |
| 2026-04-23 13:46 | 40.78977 | -138.67076 | 37364 ft | 500 kts | 102° |
| 2026-04-23 13:46 | 40.77498 | -138.58103 | 37364 ft | 500 kts | 102° |
| 2026-04-23 13:47 | 40.76015 | -138.49144 | 37363 ft | 500 kts | 102° |
| 2026-04-23 13:47 | 40.74524 | -138.40190 | 37315 ft | 500 kts | 102° |
| 2026-04-23 13:48 | 40.73029 | -138.31251 | 37303 ft | 499 kts | 103° |
| 2026-04-23 13:48 | 40.71527 | -138.22323 | 37303 ft | 499 kts | 103° |
| 2026-04-23 13:49 | 40.70020 | -138.13406 | 37304 ft | 499 kts | 103° |
| 2026-04-23 13:49 | 40.68503 | -138.04470 | 37303 ft | 500 kts | 103° |
| 2026-04-23 13:50 | 40.66980 | -137.95550 | 37302 ft | 499 kts | 103° |
| 2026-04-23 13:50 | 40.65450 | -137.86630 | 37302 ft | 499 kts | 103° |
| 2026-04-23 13:51 | 40.63916 | -137.77735 | 37303 ft | 499 kts | 103° |
| 2026-04-23 13:51 | 40.62374 | -137.68836 | 37302 ft | 499 kts | 103° |
| 2026-04-23 13:52 | 40.60824 | -137.59933 | 37302 ft | 499 kts | 103° |
| 2026-04-23 13:52 | 40.59271 | -137.51053 | 37302 ft | 499 kts | 103° |
| 2026-04-23 13:53 | 40.57708 | -137.42161 | 37301 ft | 498 kts | 103° |
| 2026-04-23 13:53 | 40.56140 | -137.33284 | 37301 ft | 498 kts | 104° |
| 2026-04-23 13:54 | 40.54565 | -137.24406 | 37301 ft | 498 kts | 104° |
| 2026-04-23 13:54 | 40.52983 | -137.15535 | 37301 ft | 498 kts | 104° |
| 2026-04-23 13:55 | 40.51394 | -137.06666 | 37301 ft | 499 kts | 104° |
| 2026-04-23 13:55 | 40.49808 | -136.97859 | 37301 ft | 499 kts | 104° |
| 2026-04-23 13:56 | 40.48193 | -136.88929 | 37301 ft | 499 kts | 104° |
| 2026-04-23 13:56 | 40.46584 | -136.80077 | 37301 ft | 498 kts | 104° |
| 2026-04-23 13:57 | 40.44967 | -136.71221 | 37300 ft | 498 kts | 104° |
| 2026-04-23 13:57 | 40.43327 | -136.62278 | 37300 ft | 497 kts | 104° |
| 2026-04-23 13:58 | 40.41699 | -136.53445 | 37299 ft | 498 kts | 104° |
| 2026-04-23 13:58 | 40.40064 | -136.44617 | 37299 ft | 498 kts | 104° |
| 2026-04-23 13:59 | 40.38423 | -136.35792 | 37299 ft | 498 kts | 104° |
| 2026-04-23 13:59 | 40.36777 | -136.26982 | 37299 ft | 497 kts | 105° |
| 2026-04-23 14:00 | 40.35393 | -136.19609 | 37298 ft | 497 kts | 105° |
| 2026-04-23 14:00 | 40.33463 | -136.09366 | 37298 ft | 498 kts | 105° |
| 2026-04-23 14:01 | 40.31794 | -136.00551 | 37298 ft | 497 kts | 105° |
| 2026-04-23 14:01 | 40.30123 | -135.91769 | 37298 ft | 498 kts | 105° |
| 2026-04-23 14:02 | 40.28440 | -135.82962 | 37298 ft | 498 kts | 105° |
| 2026-04-23 14:02 | 40.26754 | -135.74179 | 37298 ft | 498 kts | 105° |
| 2026-04-23 14:03 | 40.25045 | -135.65317 | 37302 ft | 498 kts | 105° |
| 2026-04-23 14:03 | 40.23356 | -135.56591 | 37303 ft | 498 kts | 105° |
| 2026-04-23 14:04 | 40.21648 | -135.47810 | 37302 ft | 498 kts | 105° |
| 2026-04-23 14:04 | 40.19934 | -135.39041 | 37304 ft | 498 kts | 105° |
| 2026-04-23 14:05 | 40.18211 | -135.30257 | 37312 ft | 498 kts | 105° |
| 2026-04-23 14:05 | 40.16481 | -135.21482 | 37314 ft | 499 kts | 105° |
| 2026-04-23 14:06 | 40.14744 | -135.12707 | 37314 ft | 499 kts | 105° |
| 2026-04-23 14:06 | 40.12999 | -135.03926 | 37313 ft | 499 kts | 105° |
| 2026-04-23 14:07 | 40.11248 | -134.95158 | 37313 ft | 499 kts | 105° |
| 2026-04-23 14:07 | 40.08610 | -134.82014 | 37313 ft | 499 kts | 105° |
| 2026-04-23 14:08 | 40.06837 | -134.73226 | 37312 ft | 500 kts | 106° |
| 2026-04-23 14:08 | 40.05056 | -134.64439 | 37312 ft | 500 kts | 106° |
| 2026-04-23 14:09 | 40.03277 | -134.55697 | 37311 ft | 500 kts | 106° |
| 2026-04-23 14:09 | 40.01487 | -134.46935 | 37311 ft | 500 kts | 106° |
| 2026-04-23 14:10 | 39.99689 | -134.38178 | 37310 ft | 500 kts | 106° |
| 2026-04-23 14:10 | 39.97896 | -134.29477 | 37311 ft | 500 kts | 106° |
| 2026-04-23 14:11 | 39.96060 | -134.20607 | 37305 ft | 500 kts | 106° |
| 2026-04-23 14:11 | 39.94246 | -134.11876 | 37301 ft | 499 kts | 106° |
| 2026-04-23 14:12 | 39.92708 | -134.04502 | 37300 ft | 499 kts | 106° |
| 2026-04-23 14:12 | 39.90882 | -133.95784 | 37300 ft | 499 kts | 106° |
| 2026-04-23 14:13 | 39.89035 | -133.86998 | 37300 ft | 499 kts | 106° |
| 2026-04-23 14:13 | 39.87181 | -133.78219 | 37299 ft | 500 kts | 107° |
| 2026-04-23 14:14 | 39.85308 | -133.69384 | 37299 ft | 500 kts | 107° |
| 2026-04-23 14:14 | 39.83447 | -133.60644 | 37299 ft | 501 kts | 107° |
| 2026-04-23 14:15 | 39.81573 | -133.51874 | 37298 ft | 501 kts | 107° |
| 2026-04-23 14:15 | 39.79688 | -133.43090 | 37298 ft | 501 kts | 107° |
| 2026-04-23 14:16 | 39.77795 | -133.34309 | 37298 ft | 502 kts | 107° |
| 2026-04-23 14:16 | 39.75891 | -133.25505 | 37297 ft | 502 kts | 107° |
| 2026-04-23 14:17 | 39.73977 | -133.16694 | 37297 ft | 503 kts | 107° |
| 2026-04-23 14:17 | 39.72059 | -133.07902 | 37297 ft | 503 kts | 107° |
| 2026-04-23 14:18 | 39.70142 | -132.99149 | 37297 ft | 504 kts | 107° |
| 2026-04-23 14:18 | 39.68192 | -132.90282 | 37297 ft | 504 kts | 108° |
| 2026-04-23 14:19 | 39.66263 | -132.81542 | 37296 ft | 505 kts | 108° |
| 2026-04-23 14:19 | 39.64322 | -132.72781 | 37298 ft | 505 kts | 108° |
| 2026-04-23 14:20 | 39.62356 | -132.63948 | 37297 ft | 506 kts | 108° |
| 2026-04-23 14:20 | 39.60402 | -132.55200 | 37297 ft | 506 kts | 108° |
| 2026-04-23 14:21 | 39.58436 | -132.46430 | 37296 ft | 506 kts | 108° |
| 2026-04-23 14:21 | 39.56452 | -132.37622 | 37296 ft | 506 kts | 108° |
| 2026-04-23 14:22 | 39.54473 | -132.28864 | 37296 ft | 506 kts | 108° |
| 2026-04-23 14:22 | 39.52486 | -132.20109 | 37295 ft | 506 kts | 108° |
| 2026-04-23 14:23 | 39.50498 | -132.11377 | 37295 ft | 506 kts | 108° |
| 2026-04-23 14:23 | 39.48486 | -132.02582 | 37296 ft | 506 kts | 108° |
| 2026-04-23 14:24 | 39.46480 | -131.93840 | 37296 ft | 508 kts | 108° |
| 2026-04-23 14:24 | 39.44461 | -131.85079 | 37296 ft | 508 kts | 108° |
| 2026-04-23 14:25 | 39.42433 | -131.76312 | 37288 ft | 509 kts | 108° |
| 2026-04-23 14:25 | 39.40401 | -131.67559 | 37286 ft | 509 kts | 108° |
| 2026-04-23 14:26 | 39.38360 | -131.58804 | 37286 ft | 509 kts | 109° |
| 2026-04-23 14:26 | 39.36313 | -131.50055 | 37286 ft | 509 kts | 109° |
| 2026-04-23 14:27 | 39.34601 | -131.42760 | 37285 ft | 509 kts | 109° |
| 2026-04-23 14:27 | 39.32539 | -131.34008 | 37285 ft | 509 kts | 109° |
| 2026-04-23 14:28 | 39.30457 | -131.25202 | 37284 ft | 510 kts | 109° |
| 2026-04-23 14:28 | 39.28380 | -131.16453 | 37284 ft | 510 kts | 109° |
| 2026-04-23 14:29 | 39.26290 | -131.07683 | 37284 ft | 511 kts | 109° |
| 2026-04-23 14:29 | 39.24198 | -130.98933 | 37283 ft | 511 kts | 109° |
| 2026-04-23 14:30 | 39.22092 | -130.90160 | 37283 ft | 512 kts | 109° |
| 2026-04-23 14:30 | 39.19981 | -130.81396 | 37283 ft | 512 kts | 109° |
| 2026-04-23 14:31 | 39.17858 | -130.72619 | 37282 ft | 513 kts | 109° |
| 2026-04-23 14:31 | 39.15732 | -130.63858 | 37282 ft | 513 kts | 109° |
| 2026-04-23 14:32 | 39.13592 | -130.55075 | 37281 ft | 513 kts | 109° |
| 2026-04-23 14:32 | 39.11453 | -130.46324 | 37281 ft | 513 kts | 110° |
| 2026-04-23 14:33 | 39.09311 | -130.37543 | 37281 ft | 514 kts | 109° |
| 2026-04-23 14:33 | 39.07174 | -130.28762 | 37281 ft | 514 kts | 110° |
| 2026-04-23 14:34 | 39.05000 | -130.20012 | 37280 ft | 514 kts | 110° |
| 2026-04-23 14:34 | 39.02817 | -130.11269 | 37280 ft | 514 kts | 110° |
| 2026-04-23 14:35 | 39.00627 | -130.02513 | 37279 ft | 514 kts | 110° |
| 2026-04-23 14:35 | 38.98819 | -129.93592 | 37279 ft | 519 kts | 104° |
| 2026-04-23 14:36 | 38.97363 | -129.84494 | 37279 ft | 520 kts | 103° |
| 2026-04-23 14:36 | 38.95874 | -129.75408 | 37278 ft | 519 kts | 104° |
| 2026-04-23 14:37 | 38.94342 | -129.66278 | 37278 ft | 519 kts | 104° |
| 2026-04-23 14:37 | 38.92797 | -129.57159 | 37277 ft | 520 kts | 104° |
| 2026-04-23 14:38 | 38.91304 | -129.47998 | 37277 ft | 520 kts | 104° |
| 2026-04-23 14:38 | 38.89780 | -129.38847 | 37277 ft | 521 kts | 104° |
| 2026-04-23 14:39 | 38.88244 | -129.29766 | 37276 ft | 521 kts | 104° |
| 2026-04-23 14:39 | 38.86692 | -129.20670 | 37277 ft | 522 kts | 104° |
| 2026-04-23 14:40 | 38.85117 | -129.11494 | 37276 ft | 523 kts | 104° |
| 2026-04-23 14:40 | 38.83546 | -129.02397 | 37276 ft | 523 kts | 104° |
| 2026-04-23 14:41 | 38.81964 | -128.93273 | 37276 ft | 524 kts | 104° |
| 2026-04-23 14:41 | 38.80376 | -128.84164 | 37273 ft | 524 kts | 104° |
| 2026-04-23 14:42 | 38.78777 | -128.75038 | 37275 ft | 525 kts | 104° |
| 2026-04-23 14:42 | 38.77158 | -128.65843 | 37274 ft | 526 kts | 105° |
| 2026-04-23 14:43 | 38.75551 | -128.56755 | 37274 ft | 527 kts | 105° |
| 2026-04-23 14:43 | 38.73924 | -128.47602 | 37273 ft | 527 kts | 105° |
| 2026-04-23 14:44 | 38.72286 | -128.38435 | 37273 ft | 528 kts | 105° |
| 2026-04-23 14:44 | 38.70633 | -128.29225 | 37274 ft | 528 kts | 105° |
| 2026-04-23 14:45 | 38.68978 | -128.20048 | 37273 ft | 529 kts | 105° |
| 2026-04-23 14:45 | 38.67316 | -128.10873 | 37268 ft | 530 kts | 105° |
| 2026-04-23 14:46 | 38.65644 | -128.01692 | 37267 ft | 529 kts | 105° |
| 2026-04-23 14:46 | 38.63965 | -127.92512 | 37267 ft | 532 kts | 105° |
| 2026-04-23 14:47 | 38.62244 | -127.83151 | 37266 ft | 533 kts | 105° |
| 2026-04-23 14:47 | 38.60530 | -127.73869 | 37266 ft | 533 kts | 105° |
| 2026-04-23 14:48 | 38.58820 | -127.64655 | 37272 ft | 533 kts | 105° |
| 2026-04-23 14:48 | 38.57102 | -127.55442 | 37272 ft | 533 kts | 105° |
| 2026-04-23 14:49 | 38.55377 | -127.46231 | 37271 ft | 533 kts | 105° |
| 2026-04-23 14:49 | 38.53660 | -127.37003 | 37271 ft | 535 kts | 105° |
| 2026-04-23 14:50 | 38.52216 | -127.29262 | 37272 ft | 535 kts | 106° |
| 2026-04-23 14:50 | 38.50440 | -127.19970 | 37271 ft | 535 kts | 106° |
| 2026-04-23 14:51 | 38.48665 | -127.10737 | 37271 ft | 536 kts | 106° |
| 2026-04-23 14:51 | 38.46879 | -127.01509 | 37270 ft | 536 kts | 108° |
| 2026-04-23 14:52 | 38.44433 | -126.92463 | 37271 ft | 536 kts | 114° |
| 2026-04-23 14:52 | 38.41693 | -126.83625 | 37270 ft | 535 kts | 115° |
| 2026-04-23 14:53 | 38.38923 | -126.74800 | 37270 ft | 536 kts | 115° |
| 2026-04-23 14:53 | 38.36180 | -126.65949 | 37269 ft | 538 kts | 115° |
| 2026-04-23 14:54 | 38.33468 | -126.57135 | 37268 ft | 532 kts | 114° |
| 2026-04-23 14:54 | 38.30808 | -126.48340 | 37269 ft | 533 kts | 114° |
| 2026-04-23 14:55 | 38.28105 | -126.39537 | 37260 ft | 534 kts | 115° |
| 2026-04-23 14:55 | 38.25386 | -126.30742 | 37258 ft | 535 kts | 115° |
| 2026-04-23 14:56 | 38.22643 | -126.21905 | 37259 ft | 542 kts | 115° |
| 2026-04-23 14:56 | 38.19847 | -126.12928 | 37243 ft | 549 kts | 115° |
| 2026-04-23 14:57 | 38.17014 | -126.03859 | 37235 ft | 548 kts | 115° |
| 2026-04-23 14:57 | 38.14207 | -125.94904 | 37235 ft | 549 kts | 115° |
| 2026-04-23 14:58 | 38.11369 | -125.85838 | 37235 ft | 549 kts | 115° |
| 2026-04-23 14:58 | 38.08535 | -125.76778 | 37235 ft | 548 kts | 115° |
| 2026-04-23 14:59 | 38.05680 | -125.67802 | 37234 ft | 548 kts | 115° |
| 2026-04-23 14:59 | 38.02802 | -125.58778 | 37233 ft | 548 kts | 115° |
| 2026-04-23 15:00 | 37.99925 | -125.49752 | 37233 ft | 548 kts | 114° |
| 2026-04-23 15:00 | 37.97388 | -125.40632 | 37233 ft | 550 kts | 111° |
| 2026-04-23 15:01 | 37.94956 | -125.31446 | 37233 ft | 550 kts | 112° |
| 2026-04-23 15:01 | 37.92475 | -125.22268 | 37232 ft | 550 kts | 112° |
| 2026-04-23 15:02 | 37.89974 | -125.13098 | 37232 ft | 550 kts | 112° |
| 2026-04-23 15:02 | 37.87501 | -125.03928 | 37231 ft | 551 kts | 111° |
| 2026-04-23 15:03 | 37.85016 | -124.94683 | 37232 ft | 552 kts | 112° |
| 2026-04-23 15:03 | 37.82514 | -124.85501 | 37230 ft | 552 kts | 112° |
| 2026-04-23 15:04 | 37.79997 | -124.76328 | 37231 ft | 552 kts | 112° |
| 2026-04-23 15:04 | 37.77433 | -124.67023 | 37230 ft | 553 kts | 112° |
| 2026-04-23 15:05 | 37.74877 | -124.57784 | 37218 ft | 554 kts | 112° |
| 2026-04-23 15:05 | 37.72344 | -124.48660 | 37216 ft | 554 kts | 112° |
| 2026-04-23 15:06 | 37.69897 | -124.39875 | 37216 ft | 555 kts | 112° |
| 2026-04-23 15:06 | 37.67328 | -124.30685 | 37220 ft | 555 kts | 112° |
| 2026-04-23 15:07 | 37.64730 | -124.21422 | 37220 ft | 555 kts | 112° |
| 2026-04-23 15:07 | 37.62130 | -124.12184 | 37220 ft | 555 kts | 112° |
| 2026-04-23 15:08 | 37.59537 | -124.03006 | 37222 ft | 555 kts | 112° |
| 2026-04-23 15:09 | 37.55599 | -123.89124 | 37221 ft | 557 kts | 112° |
| 2026-04-23 15:09 | 37.52991 | -123.79968 | 37224 ft | 553 kts | 112° |
| 2026-04-23 15:10 | 37.50843 | -123.72452 | 37220 ft | 545 kts | 112° |
| 2026-04-23 15:10 | 37.48275 | -123.63491 | 37218 ft | 544 kts | 112° |
| 2026-04-23 15:11 | 37.45699 | -123.54533 | 37215 ft | 545 kts | 113° |
| 2026-04-23 15:11 | 37.43186 | -123.45824 | 37214 ft | 545 kts | 113° |
| 2026-04-23 15:12 | 37.40589 | -123.36853 | 37213 ft | 545 kts | 113° |
| 2026-04-23 15:12 | 37.37975 | -123.27852 | 37213 ft | 545 kts | 113° |
| 2026-04-23 15:13 | 37.35394 | -123.18884 | 37214 ft | 545 kts | 113° |
| 2026-04-23 15:13 | 37.32782 | -123.09946 | 37214 ft | 545 kts | 113° |
| 2026-04-23 15:14 | 37.30148 | -123.01012 | 37214 ft | 546 kts | 113° |
| 2026-04-23 15:14 | 37.27504 | -122.92069 | 37213 ft | 546 kts | 113° |
| 2026-04-23 15:15 | 37.24225 | -122.83444 | 37216 ft | 542 kts | 125° |
| 2026-04-23 15:15 | 37.20040 | -122.75627 | 37212 ft | 538 kts | 130° |
| 2026-04-23 15:16 | 37.15668 | -122.68032 | 37213 ft | 539 kts | 130° |
| 2026-04-23 15:16 | 37.11306 | -122.60347 | 37213 ft | 543 kts | 130° |
| 2026-04-23 15:17 | 37.06947 | -122.52628 | 37214 ft | 542 kts | 130° |
| 2026-04-23 15:17 | 37.02635 | -122.44883 | 37216 ft | 542 kts | 129° |
| 2026-04-23 15:18 | 36.98281 | -122.37094 | 37214 ft | 542 kts | 130° |
| 2026-04-23 15:18 | 36.93888 | -122.29284 | 37215 ft | 542 kts | 130° |
| 2026-04-23 15:19 | 36.89542 | -122.21585 | 37216 ft | 542 kts | 130° |
| 2026-04-23 15:19 | 36.85195 | -122.13905 | 37216 ft | 542 kts | 130° |
| 2026-04-23 15:20 | 36.80835 | -122.06219 | 37216 ft | 542 kts | 130° |
| 2026-04-23 15:20 | 36.76486 | -121.98573 | 37214 ft | 540 kts | 130° |
| 2026-04-23 15:21 | 36.72123 | -121.90917 | 37214 ft | 542 kts | 130° |
| 2026-04-23 15:21 | 36.67722 | -121.83213 | 37212 ft | 542 kts | 130° |
| 2026-04-23 15:22 | 36.63347 | -121.75571 | 37211 ft | 542 kts | 130° |
| 2026-04-23 15:22 | 36.58939 | -121.67890 | 37211 ft | 542 kts | 130° |
| 2026-04-23 15:23 | 36.54525 | -121.60215 | 37210 ft | 542 kts | 130° |
| 2026-04-23 15:23 | 36.50140 | -121.52608 | 37213 ft | 542 kts | 130° |
| 2026-04-23 15:24 | 36.45742 | -121.44996 | 37215 ft | 542 kts | 130° |
| 2026-04-23 15:24 | 36.41344 | -121.37400 | 37213 ft | 542 kts | 130° |
| 2026-04-23 15:25 | 36.36940 | -121.29810 | 37213 ft | 542 kts | 130° |
| 2026-04-23 15:25 | 36.32537 | -121.22240 | 37214 ft | 541 kts | 130° |
| 2026-04-23 15:26 | 36.28123 | -121.14666 | 37217 ft | 541 kts | 130° |
| 2026-04-23 15:26 | 36.23704 | -121.07101 | 37220 ft | 541 kts | 131° |
| 2026-04-23 15:27 | 36.19292 | -120.99565 | 37222 ft | 541 kts | 131° |
| 2026-04-23 15:27 | 36.14862 | -120.92015 | 37225 ft | 541 kts | 131° |
| 2026-04-23 15:28 | 36.10403 | -120.84432 | 37227 ft | 541 kts | 131° |
| 2026-04-23 15:28 | 36.05998 | -120.76957 | 37229 ft | 541 kts | 131° |
| 2026-04-23 15:29 | 36.01533 | -120.69397 | 37230 ft | 541 kts | 131° |
| 2026-04-23 15:29 | 35.97848 | -120.63169 | 37233 ft | 540 kts | 131° |
| 2026-04-23 15:30 | 35.93735 | -120.56231 | 37229 ft | 536 kts | 131° |
| 2026-04-23 15:30 | 35.89322 | -120.48804 | 37230 ft | 537 kts | 131° |
| 2026-04-23 15:31 | 35.84907 | -120.41371 | 37232 ft | 537 kts | 130° |
| 2026-04-23 15:31 | 35.80495 | -120.33936 | 37232 ft | 537 kts | 131° |
| 2026-04-23 15:32 | 35.76082 | -120.26574 | 37231 ft | 538 kts | 131° |
| 2026-04-23 15:32 | 35.71634 | -120.19172 | 37225 ft | 538 kts | 131° |
| 2026-04-23 15:33 | 35.66951 | -120.12058 | 37218 ft | 531 kts | 143° |
| 2026-04-23 15:33 | 35.61145 | -120.06586 | 37207 ft | 521 kts | 153° |
| 2026-04-23 15:34 | 35.54974 | -120.01923 | 37198 ft | 516 kts | 155° |
| 2026-04-23 15:34 | 35.51906 | -119.99654 | 36896 ft | 510 kts | 155° |
| 2026-04-23 15:34 | 35.49912 | -119.98167 | 36583 ft | 507 kts | 155° |
| 2026-04-23 15:34 | 35.45887 | -119.95155 | 35691 ft | 506 kts | 155° |
| 2026-04-23 15:35 | 35.42898 | -119.92916 | 35203 ft | 502 kts | 155° |
| 2026-04-23 15:35 | 35.39926 | -119.90690 | 34707 ft | 499 kts | 155° |
| 2026-04-23 15:35 | 35.37970 | -119.89225 | 34382 ft | 497 kts | 155° |
| 2026-04-23 15:35 | 35.35033 | -119.87025 | 33903 ft | 493 kts | 155° |
| 2026-04-23 15:36 | 35.32118 | -119.84844 | 33429 ft | 489 kts | 155° |
| 2026-04-23 15:36 | 35.29235 | -119.82661 | 32962 ft | 487 kts | 153° |
| 2026-04-23 15:36 | 35.26459 | -119.80289 | 32508 ft | 485 kts | 150° |
| 2026-04-23 15:36 | 35.23779 | -119.77796 | 32050 ft | 483 kts | 148° |
| 2026-04-23 15:37 | 35.21141 | -119.75267 | 31585 ft | 480 kts | 148° |
| 2026-04-23 15:37 | 35.18507 | -119.72770 | 31124 ft | 477 kts | 148° |
| 2026-04-23 15:37 | 35.15864 | -119.70270 | 30657 ft | 473 kts | 148° |
| 2026-04-23 15:37 | 35.13269 | -119.67820 | 30198 ft | 470 kts | 148° |
| 2026-04-23 15:38 | 35.10690 | -119.65407 | 29743 ft | 466 kts | 149° |
| 2026-04-23 15:38 | 35.08112 | -119.63008 | 29274 ft | 463 kts | 149° |
| 2026-04-23 15:38 | 35.05558 | -119.60635 | 28811 ft | 461 kts | 149° |
| 2026-04-23 15:38 | 35.03021 | -119.58281 | 28347 ft | 457 kts | 149° |
| 2026-04-23 15:39 | 35.00492 | -119.55937 | 27882 ft | 454 kts | 148° |
| 2026-04-23 15:39 | 34.97986 | -119.53616 | 27413 ft | 452 kts | 148° |
| 2026-04-23 15:39 | 34.95490 | -119.51304 | 26943 ft | 449 kts | 148° |
| 2026-04-23 15:39 | 34.93014 | -119.49013 | 26446 ft | 445 kts | 148° |
| 2026-04-23 15:40 | 34.90554 | -119.46738 | 25936 ft | 442 kts | 149° |
| 2026-04-23 15:40 | 34.88095 | -119.44531 | 25476 ft | 438 kts | 149° |
| 2026-04-23 15:40 | 34.85638 | -119.42342 | 24963 ft | 436 kts | 149° |
| 2026-04-23 15:40 | 34.83203 | -119.40170 | 24445 ft | 434 kts | 149° |
| 2026-04-23 15:41 | 34.80783 | -119.38010 | 23978 ft | 430 kts | 149° |
| 2026-04-23 15:41 | 34.78371 | -119.35858 | 23498 ft | 427 kts | 149° |
| 2026-04-23 15:41 | 34.75991 | -119.33736 | 23076 ft | 423 kts | 149° |
| 2026-04-23 15:41 | 34.73631 | -119.31634 | 22599 ft | 420 kts | 149° |
| 2026-04-23 15:42 | 34.71266 | -119.29575 | 22136 ft | 417 kts | 149° |
| 2026-04-23 15:42 | 34.68910 | -119.27521 | 21650 ft | 415 kts | 149° |
| 2026-04-23 15:42 | 34.66580 | -119.25489 | 21257 ft | 411 kts | 149° |
| 2026-04-23 15:42 | 34.64263 | -119.23467 | 20801 ft | 408 kts | 149° |
| 2026-04-23 15:43 | 34.61955 | -119.21479 | 20351 ft | 405 kts | 150° |
| 2026-04-23 15:43 | 34.59662 | -119.19505 | 19868 ft | 404 kts | 150° |
| 2026-04-23 15:43 | 34.57375 | -119.17537 | 19302 ft | 404 kts | 149° |
| 2026-04-23 15:43 | 34.55095 | -119.15553 | 18890 ft | 401 kts | 149° |
| 2026-04-23 15:44 | 34.52860 | -119.13562 | 18532 ft | 396 kts | 149° |
| 2026-04-23 15:44 | 34.50655 | -119.11604 | 18105 ft | 392 kts | 149° |
| 2026-04-23 15:44 | 34.48449 | -119.09654 | 17658 ft | 390 kts | 149° |
| 2026-04-23 15:44 | 34.46266 | -119.07727 | 17228 ft | 387 kts | 149° |
| 2026-04-23 15:45 | 34.44090 | -119.05800 | 16758 ft | 386 kts | 148° |
| 2026-04-23 15:45 | 34.41924 | -119.03915 | 16357 ft | 382 kts | 149° |
| 2026-04-23 15:45 | 34.39765 | -119.02050 | 15929 ft | 380 kts | 149° |
| 2026-04-23 15:45 | 34.37622 | -119.00198 | 15493 ft | 378 kts | 148° |
| 2026-04-23 15:46 | 34.35484 | -118.98350 | 15048 ft | 376 kts | 148° |
| 2026-04-23 15:46 | 34.33369 | -118.96508 | 14645 ft | 373 kts | 147° |
| 2026-04-23 15:46 | 34.31301 | -118.94621 | 14237 ft | 371 kts | 146° |
| 2026-04-23 15:46 | 34.29243 | -118.92739 | 13792 ft | 370 kts | 146° |
| 2026-04-23 15:47 | 34.27192 | -118.90877 | 13368 ft | 368 kts | 146° |
| 2026-04-23 15:47 | 34.25165 | -118.89035 | 12989 ft | 365 kts | 146° |
| 2026-04-23 15:47 | 34.23150 | -118.87180 | 12625 ft | 359 kts | 145° |
| 2026-04-23 15:47 | 34.21218 | -118.85404 | 12517 ft | 341 kts | 145° |
| 2026-04-23 15:48 | 34.19359 | -118.83699 | 12376 ft | 331 kts | 146° |
| 2026-04-23 15:48 | 34.17541 | -118.82032 | 12122 ft | 326 kts | 145° |
| 2026-04-23 15:48 | 34.15767 | -118.80344 | 11876 ft | 324 kts | 142° |
| 2026-04-23 15:48 | 34.14092 | -118.78559 | 11539 ft | 325 kts | 140° |
| 2026-04-23 15:49 | 34.12431 | -118.76697 | 11207 ft | 323 kts | 139° |
| 2026-04-23 15:49 | 34.10787 | -118.74874 | 10878 ft | 321 kts | 139° |
| 2026-04-23 15:49 | 34.09124 | -118.73053 | 10550 ft | 318 kts | 139° |
| 2026-04-23 15:49 | 34.07479 | -118.71265 | 10224 ft | 316 kts | 139° |
| 2026-04-23 15:50 | 34.05851 | -118.69499 | 9913 ft | 312 kts | 138° |
| 2026-04-23 15:50 | 34.04318 | -118.67730 | 9661 ft | 302 kts | 129° |
| 2026-04-23 15:50 | 34.03339 | -118.65537 | 9304 ft | 292 kts | 110° |
| 2026-04-23 15:50 | 34.02733 | -118.63236 | 9008 ft | 286 kts | 104° |
| 2026-04-23 15:51 | 34.02348 | -118.60908 | 8725 ft | 282 kts | 97° |
| 2026-04-23 15:51 | 34.02105 | -118.58573 | 8423 ft | 280 kts | 95° |
| 2026-04-23 15:51 | 34.01941 | -118.56245 | 8127 ft | 278 kts | 92° |
| 2026-04-23 15:51 | 34.01833 | -118.53928 | 7834 ft | 275 kts | 94° |
| 2026-04-23 15:52 | 34.01631 | -118.51667 | 7668 ft | 266 kts | 96° |
| 2026-04-23 15:52 | 34.01409 | -118.49506 | 7536 ft | 253 kts | 96° |
| 2026-04-23 15:52 | 34.01198 | -118.47466 | 7430 ft | 239 kts | 96° |
| 2026-04-23 15:52 | 34.01135 | -118.45525 | 7291 ft | 232 kts | 86° |
| 2026-04-23 15:53 | 34.01323 | -118.43562 | 7047 ft | 235 kts | 80° |
| 2026-04-23 15:53 | 34.01635 | -118.41659 | 6809 ft | 226 kts | 77° |
| 2026-04-23 15:53 | 34.01968 | -118.39850 | 6570 ft | 217 kts | 77° |
| 2026-04-23 15:53 | 34.02292 | -118.38116 | 6316 ft | 208 kts | 76° |
| 2026-04-23 15:54 | 34.02609 | -118.36423 | 6121 ft | 207 kts | 76° |
| 2026-04-23 15:54 | 34.02882 | -118.34714 | 5940 ft | 208 kts | 79° |
| 2026-04-23 15:54 | 34.03078 | -118.33015 | 5738 ft | 204 kts | 82° |
| 2026-04-23 15:54 | 34.03230 | -118.31325 | 5529 ft | 200 kts | 83° |
| 2026-04-23 15:55 | 34.03347 | -118.29669 | 5330 ft | 199 kts | 84° |
| 2026-04-23 15:55 | 34.03488 | -118.28009 | 5192 ft | 199 kts | 83° |
| 2026-04-23 15:55 | 34.03660 | -118.26360 | 5134 ft | 199 kts | 82° |
| 2026-04-23 15:55 | 34.03840 | -118.24705 | 5088 ft | 199 kts | 82° |
| 2026-04-23 15:56 | 34.04021 | -118.23050 | 5033 ft | 199 kts | 82° |
| 2026-04-23 15:56 | 34.04202 | -118.21392 | 4934 ft | 200 kts | 82° |
| 2026-04-23 15:56 | 34.04379 | -118.19776 | 4823 ft | 194 kts | 82° |
| 2026-04-23 15:56 | 34.04555 | -118.18161 | 4649 ft | 190 kts | 82° |
| 2026-04-23 15:57 | 34.04726 | -118.16595 | 4415 ft | 187 kts | 82° |
| 2026-04-23 15:57 | 34.04897 | -118.15041 | 4161 ft | 187 kts | 82° |
| 2026-04-23 15:57 | 34.05065 | -118.13509 | 3889 ft | 187 kts | 82° |
| 2026-04-23 15:57 | 34.05219 | -118.11961 | 3631 ft | 186 kts | 87° |
| 2026-04-23 15:58 | 34.04899 | -118.10496 | 3399 ft | 187 kts | 122° |
| 2026-04-23 15:58 | 34.03854 | -118.09600 | 3246 ft | 187 kts | 156° |
| 2026-04-23 15:58 | 34.02577 | -118.09287 | 3140 ft | 189 kts | 167° |
| 2026-04-23 15:58 | 34.01288 | -118.09047 | 3030 ft | 189 kts | 171° |
| 2026-04-23 15:59 | 33.99969 | -118.09036 | 2880 ft | 188 kts | 195° |
| 2026-04-23 15:59 | 33.98968 | -118.09987 | 2758 ft | 187 kts | 232° |
| 2026-04-23 15:59 | 33.98445 | -118.11415 | 2704 ft | 186 kts | 247° |
| 2026-04-23 15:59 | 33.98102 | -118.12922 | 2660 ft | 186 kts | 254° |
| 2026-04-23 16:00 | 33.97864 | -118.14433 | 2611 ft | 186 kts | 259° |
| 2026-04-23 16:00 | 33.97683 | -118.15994 | 2560 ft | 186 kts | 261° |
| 2026-04-23 16:00 | 33.97528 | -118.17520 | 2502 ft | 181 kts | 262° |
| 2026-04-23 16:00 | 33.97377 | -118.19016 | 2461 ft | 178 kts | 263° |
| 2026-04-23 16:01 | 33.97228 | -118.20483 | 2427 ft | 176 kts | 263° |
| 2026-04-23 16:01 | 33.97081 | -118.21925 | 2401 ft | 176 kts | 263° |
| 2026-04-23 16:01 | 33.96929 | -118.23407 | 2375 ft | 176 kts | 263° |
| 2026-04-23 16:01 | 33.96782 | -118.24842 | 2392 ft | 175 kts | 263° |
| 2026-04-23 16:02 | 33.96636 | -118.26277 | 2401 ft | 169 kts | 263° |
| 2026-04-23 16:02 | 33.96493 | -118.27672 | 2188 ft | 167 kts | 263° |
| 2026-04-23 16:02 | 33.96351 | -118.29055 | 1957 ft | 159 kts | 263° |
| 2026-04-23 16:02 | 33.96218 | -118.30355 | 1760 ft | 156 kts | 263° |
| 2026-04-23 16:03 | 33.96088 | -118.31635 | 1563 ft | 157 kts | 264° |
| 2026-04-23 16:03 | 33.95960 | -118.32934 | 1332 ft | 156 kts | 264° |
| 2026-04-23 16:03 | 33.95835 | -118.34226 | 1091 ft | 154 kts | 264° |
| 2026-04-23 16:03 | 33.95693 | -118.35515 | 887 ft | 153 kts | 263° |
| 2026-04-23 16:04 | 33.95556 | -118.36751 | 706 ft | 150 kts | 264° |
| 2026-04-23 16:04 | 33.95429 | -118.37987 | 502 ft | 148 kts | 264° |
| 2026-04-23 16:04 | 33.95315 | -118.39236 | 314 ft | 146 kts | 263° |
| 2026-04-23 16:04 | 33.95182 | -118.40432 | 156 ft | 143 kts | 263° |
| 2026-04-23 16:05 | 33.95110 | -118.41203 | 141 ft | 130 kts | 259° |
| 2026-04-23 16:05 | 33.95004 | -118.42213 | 140 ft | 62 kts | 263° |
| 2026-04-23 16:05 | 33.94955 | -118.42688 | 140 ft | 54 kts | 263° |
| 2026-04-23 16:05 | 33.94925 | -118.42984 | 140 ft | 18 kts | 263° |
| 2026-04-23 16:06 | 33.94908 | -118.43085 | 139 ft | 9 kts | 224° |
| 2026-04-23 16:06 | 33.94860 | -118.43094 | 140 ft | 4 kts | 173° |
| 2026-04-23 16:06 | 33.94842 | -118.43091 | 139 ft | 3 kts | 172° |
| 2026-04-23 16:06 | 33.94824 | -118.43089 | 139 ft | 2 kts | 173° |
| 2026-04-23 16:07 | 33.94809 | -118.43086 | 139 ft | 2 kts | 173° |
| 2026-04-23 16:07 | 33.94769 | -118.43080 | 140 ft | 9 kts | 173° |
| 2026-04-23 16:07 | 33.94710 | -118.43069 | 140 ft | 8 kts | 162° |
| 2026-04-23 16:07 | 33.94670 | -118.43023 | 139 ft | 8 kts | 124° |
| 2026-04-23 16:08 | 33.94639 | -118.42970 | 139 ft | 8 kts | 126° |
| 2026-04-23 16:08 | 33.94618 | -118.42914 | 139 ft | 7 kts | 95° |
| 2026-04-23 16:08 | 33.94621 | -118.42856 | 139 ft | 7 kts | 83° |
| 2026-04-23 16:08 | 33.94627 | -118.42797 | 139 ft | 9 kts | 83° |
| 2026-04-23 16:09 | 33.94645 | -118.42625 | 140 ft | 28 kts | 83° |
| 2026-04-23 16:09 | 33.94668 | -118.42402 | 140 ft | 25 kts | 83° |
| 2026-04-23 16:09 | 33.94689 | -118.42201 | 140 ft | 23 kts | 83° |
| 2026-04-23 16:09 | 33.94708 | -118.42015 | 140 ft | 22 kts | 83° |
| 2026-04-23 16:10 | 33.94726 | -118.41837 | 140 ft | 21 kts | 83° |
| 2026-04-23 16:10 | 33.94744 | -118.41666 | 140 ft | 20 kts | 83° |
| 2026-04-23 16:10 | 33.94761 | -118.41504 | 139 ft | 18 kts | 83° |
| 2026-04-23 16:10 | 33.94783 | -118.41378 | 139 ft | 14 kts | 76° |
| 2026-04-23 16:11 | 33.94764 | -118.41301 | 139 ft | 10 kts | 156° |
| 2026-04-23 16:11 | 33.94694 | -118.41281 | 139 ft | 10 kts | 173° |
| 2026-04-23 16:11 | 33.94626 | -118.41271 | 139 ft | 10 kts | 173° |
| 2026-04-23 16:11 | 33.94561 | -118.41261 | 139 ft | 9 kts | 173° |
| 2026-04-23 16:12 | 33.94498 | -118.41252 | 139 ft | 9 kts | 173° |
| 2026-04-23 16:12 | 33.94438 | -118.41243 | 139 ft | 8 kts | 173° |
| 2026-04-23 16:12 | 33.94380 | -118.41234 | 139 ft | 8 kts | 173° |
| 2026-04-23 16:12 | 33.94325 | -118.41226 | 139 ft | 8 kts | 173° |
| 2026-04-23 16:13 | 33.94273 | -118.41218 | 139 ft | 7 kts | 173° |
| 2026-04-23 16:13 | 33.94177 | -118.41198 | 139 ft | 7 kts | 139° |
| 2026-04-23 16:13 | 33.94171 | -118.41148 | 139 ft | 4 kts | 78° |
| 2026-04-23 16:14 | 33.94175 | -118.41120 | 139 ft | 2 kts | 83° |
| 2026-04-23 16:14 | 33.94176 | -118.41106 | 139 ft | 2 kts | 83° |
| 2026-04-23 16:14 | 33.94178 | -118.41094 | 139 ft | 1 kts | 83° |
| 2026-04-23 16:14 | 33.94178 | -118.41091 | 139 ft | 0 kts | 83° |